Time;durP1;ratioP1;P1;durP2;ratioP2;P2;SDS_P1;SDS_P2;PMS_P1;PMS_P2;Temp;Humidity;BMP_temperature;BMP_pressure;BME280_temperature;BME280_humidity;BME280_pressure;Samples;Min_cycle;Max_cycle;Signal;HPM_P1;HPM_P2
2023/09/16 00:00:37;;;;;;;4.18;2.30;;;;;;;23.49;56.44;101016.13;5123693;28;20054;-80
2023/09/16 00:03:31;;;;;;;9.13;2.80;;;;;;;23.48;56.37;101020.09;5120238;28;20058;-81
2023/09/16 00:06:26;;;;;;;5.28;3.33;;;;;;;23.22;56.50;101029.53;5127077;28;20047;-81
2023/09/16 00:09:21;;;;;;;9.75;3.47;;;;;;;23.22;56.54;101031.50;5124067;28;20043;-80
2023/09/16 00:12:13;;;;;;;3.72;2.90;;;;;;;23.40;56.40;101032.34;5121939;28;20047;-81
2023/09/16 00:15:05;;;;;;;3.75;2.75;;;;;;;23.51;55.70;101029.63;5125666;28;20055;-81
2023/09/16 00:17:59;;;;;;;7.13;2.35;;;;;;;23.60;56.02;101025.28;5123318;28;20047;-80
2023/09/16 00:20:54;;;;;;;6.07;2.33;;;;;;;23.60;55.94;101027.25;5123639;28;20046;-80
2023/09/16 00:23:49;;;;;;;5.68;3.25;;;;;;;23.52;55.55;101023.66;5124696;28;20043;-80
2023/09/16 00:26:43;;;;;;;13.85;4.32;;;;;;;22.91;56.33;101028.25;5121528;28;20047;-80
2023/09/16 00:29:37;;;;;;;10.55;3.15;;;;;;;22.73;57.27;101032.97;5118553;28;20047;-80
2023/09/16 00:32:31;;;;;;;11.85;3.40;;;;;;;22.49;57.79;101033.63;5115545;28;20066;-80
2023/09/16 00:35:26;;;;;;;14.02;4.00;;;;;;;22.43;58.71;101035.16;5124598;28;20035;-80
2023/09/16 00:38:18;;;;;;;9.23;3.03;;;;;;;22.66;58.48;101032.91;5123611;28;20054;-80
2023/09/16 00:41:12;;;;;;;8.93;2.80;;;;;;;23.03;57.62;101030.69;5111662;28;20518;-80
2023/09/16 00:44:03;;;;;;;8.35;2.90;;;;;;;23.28;57.03;101033.53;5118397;28;20039;-80
2023/09/16 00:46:57;;;;;;;3.80;2.38;;;;;;;23.41;56.40;101023.66;5120432;28;20051;-80
2023/09/16 00:49:49;;;;;;;8.48;3.03;;;;;;;23.49;56.12;101023.66;5119836;28;20591;-80
2023/09/16 00:52:44;;;;;;;6.47;3.33;;;;;;;23.51;55.60;101029.63;5120343;28;20046;-81
2023/09/16 00:55:39;;;;;;;8.02;3.08;;;;;;;23.30;55.45;101030.38;5121235;28;20075;-80
2023/09/16 00:58:34;;;;;;;12.50;3.28;;;;;;;23.10;56.22;101038.25;5124073;28;20054;-80
2023/09/16 01:01:30;;;;;;;10.40;2.97;;;;;;;23.01;56.83;101038.59;5119945;28;20059;-80
2023/09/16 01:04:23;;;;;;;4.40;2.88;;;;;;;23.30;56.41;101041.47;5118696;28;20507;-80
2023/09/16 01:07:17;;;;;;;2.72;2.17;;;;;;;23.43;55.96;101037.09;5119291;28;20529;-80
2023/09/16 01:10:10;;;;;;;5.63;2.45;;;;;;;23.42;55.95;101032.75;5119947;28;20047;-80
2023/09/16 01:13:05;;;;;;;3.42;1.98;;;;;;;23.50;56.06;101037.16;5124282;28;20050;-80
2023/09/16 01:16:01;;;;;;;4.55;2.50;;;;;;;23.53;55.58;101033.59;5121017;28;20051;-80
2023/09/16 01:19:19;;;;;;;4.38;2.60;;;;;;;23.60;55.23;101033.59;5119027;28;20047;-80
2023/09/16 01:22:15;;;;;;;3.35;2.30;;;;;;;23.56;54.93;101032.00;5100416;28;20047;-80
2023/09/16 01:25:09;;;;;;;3.00;2.65;;;;;;;23.58;55.63;101027.63;5119235;28;20402;-81
2023/09/16 01:28:04;;;;;;;5.28;3.00;;;;;;;23.61;55.40;101034.41;5120212;28;20051;-81
2023/09/16 01:31:00;;;;;;;6.20;2.70;;;;;;;23.62;55.27;101031.19;5120591;28;20047;-81
2023/09/16 01:33:56;;;;;;;3.22;2.47;;;;;;;23.64;54.98;101034.38;5125608;28;20054;-81
2023/09/16 01:36:52;;;;;;;6.63;2.60;;;;;;;23.62;54.91;101033.97;5122109;28;20039;-80
2023/09/16 01:39:46;;;;;;;4.70;2.53;;;;;;;23.62;55.24;101038.75;5119077;28;20118;-81
2023/09/16 01:42:41;;;;;;;8.90;2.90;;;;;;;23.62;55.13;101039.53;5119506;28;20549;-80
2023/09/16 01:45:46;;;;;;;2.85;1.95;;;;;;;23.64;54.95;101039.94;5121587;28;20050;-80
2023/09/16 01:48:40;;;;;;;6.30;2.00;;;;;;;23.61;55.05;101037.97;5120014;28;20047;-80
2023/09/16 01:51:32;;;;;;;3.45;2.72;;;;;;;23.54;55.19;101032.41;5121176;28;20051;-81
2023/09/16 01:54:27;;;;;;;3.47;2.55;;;;;;;23.58;55.05;101024.06;5119191;28;20055;-80
2023/09/16 01:57:17;;;;;;;6.32;3.08;;;;;;;23.58;55.24;101033.19;5119585;28;20525;-81
2023/09/16 02:00:10;;;;;;;5.68;2.95;;;;;;;23.51;55.14;101030.44;5120015;28;20047;-80
2023/09/16 02:03:05;;;;;;;5.35;2.90;;;;;;;23.50;55.35;101025.25;5119498;28;20047;-81
2023/09/16 02:05:59;;;;;;;5.63;2.30;;;;;;;23.55;55.08;101022.88;5121316;28;20058;-81
2023/09/16 02:08:54;;;;;;;7.63;2.70;;;;;;;23.55;55.23;101022.09;5118681;28;20074;-81
2023/09/16 02:11:46;;;;;;;8.70;3.30;;;;;;;23.41;54.59;101023.66;5121557;28;20051;-81
2023/09/16 02:14:45;;;;;;;5.53;2.97;;;;;;;23.33;55.20;101037.88;5119545;28;20047;-81
2023/09/16 02:17:39;;;;;;;5.72;2.05;;;;;;;23.44;55.64;101033.16;5122853;28;20433;-81
2023/09/16 02:20:34;;;;;;;6.13;3.03;;;;;;;23.37;55.53;101025.59;5120401;28;20046;-81
2023/09/16 02:23:29;;;;;;;6.00;3.88;;;;;;;22.70;56.63;101021.84;5118820;28;20162;-81
2023/09/16 02:26:21;;;;;;;5.20;3.65;;;;;;;22.28;58.14;101039.84;5121589;28;20474;-81
2023/09/16 02:29:13;;;;;;;8.68;4.07;;;;;;;21.87;59.25;101030.81;5118574;28;20046;-81
2023/09/16 02:32:07;;;;;;;16.15;7.60;;;;;;;21.68;60.33;101025.53;5119310;28;20047;-81
2023/09/16 02:35:03;;;;;;;14.82;7.30;;;;;;;21.58;60.89;101029.81;5119769;28;20054;-81
2023/09/16 02:37:57;;;;;;;24.58;9.00;;;;;;;21.21;62.45;101026.28;5118899;28;20051;-81
2023/09/16 02:40:52;;;;;;;17.75;7.95;;;;;;;21.20;62.88;101030.22;5121707;28;20050;-80
2023/09/16 02:43:47;;;;;;;17.48;7.97;;;;;;;21.24;62.97;101028.25;5120127;28;20039;-80
2023/09/16 02:46:42;;;;;;;21.67;9.00;;;;;;;21.07;63.19;101037.94;5122857;28;20043;-80
2023/09/16 02:49:36;;;;;;;21.75;8.60;;;;;;;20.94;63.81;101033.84;5119769;28;20036;-80
2023/09/16 02:52:31;;;;;;;9.50;5.72;;;;;;;21.12;63.38;101034.84;5117375;28;20043;-80
2023/09/16 02:55:23;;;;;;;10.40;5.78;;;;;;;21.25;62.76;101033.44;5122009;28;20051;-80
2023/09/16 02:58:18;;;;;;;11.43;5.22;;;;;;;21.19;63.22;101029.41;5119336;28;20062;-80
2023/09/16 03:01:15;;;;;;;17.73;5.95;;;;;;;21.11;62.51;101024.97;5120986;28;20043;-80
2023/09/16 03:04:10;;;;;;;15.20;6.25;;;;;;;21.06;63.03;101022.53;5120176;28;20043;-80
2023/09/16 03:07:04;;;;;;;10.82;5.90;;;;;;;20.71;64.50;101025.69;5118075;28;20054;-80
2023/09/16 03:09:55;;;;;;;22.85;9.07;;;;;;;20.77;64.50;101015.91;5121730;28;20675;-80
2023/09/16 03:12:50;;;;;;;33.92;12.38;;;;;;;20.76;64.64;101011.53;5118035;28;20398;-80
2023/09/16 03:15:48;;;;;;;21.55;9.15;;;;;;;20.83;64.53;101011.59;5122202;28;20044;-79
2023/09/16 03:18:38;;;;;;;17.70;9.15;;;;;;;20.56;65.28;101017.59;5119380;28;20043;-80
2023/09/16 03:21:32;;;;;;;30.08;9.57;;;;;;;20.56;65.68;101021.16;5116374;28;20043;-79
2023/09/16 03:24:25;;;;;;;11.65;7.07;;;;;;;20.44;65.65;101026.91;5120604;28;20501;-80
2023/09/16 03:27:20;;;;;;;11.18;6.25;;;;;;;20.24;66.79;101026.19;5118903;28;20043;-80
2023/09/16 03:30:16;;;;;;;12.95;6.78;;;;;;;20.21;66.72;101023.41;5117357;28;20397;-81
2023/09/16 03:33:06;;;;;;;9.77;6.07;;;;;;;20.02;67.47;101027.03;5120245;28;20061;-79
2023/09/16 03:36:01;;;;;;;8.57;4.80;;;;;;;19.95;67.72;101018.69;5118068;28;20047;-80
2023/09/16 03:38:56;;;;;;;8.93;5.55;;;;;;;20.00;68.21;101021.13;5121253;28;20066;-80
2023/09/16 03:41:50;;;;;;;12.13;5.93;;;;;;;20.08;67.20;101015.31;5119582;28;20399;-80
2023/09/16 03:44:45;;;;;;;10.73;6.63;;;;;;;20.19;67.59;101022.97;5116828;28;20050;-79
2023/09/16 03:47:39;;;;;;;18.55;7.25;;;;;;;20.39;66.99;101027.22;5119566;28;20036;-79
2023/09/16 03:50:35;;;;;;;17.27;8.23;;;;;;;20.42;66.46;101026.47;5117028;28;20059;-79
2023/09/16 03:53:27;;;;;;;19.35;6.57;;;;;;;20.34;67.16;101028.34;5121529;28;20510;-80
2023/09/16 03:56:23;;;;;;;10.55;5.93;;;;;;;20.40;65.98;101026.06;5119280;28;20046;-80
2023/09/16 03:59:19;;;;;;;12.63;5.97;;;;;;;20.38;66.29;101029.19;5116532;28;20047;-79
2023/09/16 04:02:14;;;;;;;22.90;6.10;;;;;;;20.36;66.02;101020.50;5117499;28;20047;-80
2023/09/16 04:05:06;;;;;;;16.27;7.35;;;;;;;20.50;66.09;101025.41;5117842;28;20414;-79
2023/09/16 04:08:02;;;;;;;10.70;5.40;;;;;;;20.47;66.23;101020.59;5121022;28;20038;-79
2023/09/16 04:10:57;;;;;;;11.20;5.00;;;;;;;20.53;65.78;101019.13;5118998;28;20031;-79
2023/09/16 04:13:51;;;;;;;12.88;4.68;;;;;;;20.61;65.31;101017.25;5116931;28;20036;-80
2023/09/16 04:16:43;;;;;;;7.50;4.38;;;;;;;20.55;66.18;101024.28;5120870;28;20068;-79
2023/09/16 04:19:38;;;;;;;7.60;5.18;;;;;;;20.61;65.66;101020.03;5116841;28;20046;-80
2023/09/16 04:22:28;;;;;;;15.00;5.18;;;;;;;20.64;65.46;101009.00;5116634;28;20050;-79
2023/09/16 04:25:23;;;;;;;11.55;4.10;;;;;;;20.83;64.98;101002.50;5116811;28;20046;-79
2023/09/16 04:28:15;;;;;;;6.30;3.90;;;;;;;21.32;64.11;101008.59;5116142;28;20499;-79
2023/09/16 04:31:09;;;;;;;8.32;4.65;;;;;;;21.21;63.50;101004.94;5120441;28;20057;-79
2023/09/16 04:34:04;;;;;;;6.60;4.97;;;;;;;20.87;64.28;101011.66;5118298;28;20034;-79
2023/09/16 04:36:58;;;;;;;15.75;5.80;;;;;;;20.84;64.70;101009.63;5121777;28;20054;-79
2023/09/16 04:39:54;;;;;;;8.43;4.80;;;;;;;20.66;65.05;101017.72;5122735;28;20039;-80
2023/09/16 04:42:48;;;;;;;11.77;5.25;;;;;;;20.75;64.77;101015.47;5118654;28;20070;-80
2023/09/16 04:45:48;;;;;;;7.60;4.45;;;;;;;20.70;65.44;101012.22;5123906;28;20035;-80
2023/09/16 04:48:44;;;;;;;8.05;4.72;;;;;;;20.82;64.88;101009.22;5120978;28;20050;-81
2023/09/16 04:51:39;;;;;;;15.65;4.80;;;;;;;20.97;64.72;101022.03;5113083;28;20051;-80
2023/09/16 04:54:30;;;;;;;15.27;4.93;;;;;;;21.31;63.29;101025.59;5107748;28;20051;-80
2023/09/16 04:57:18;;;;;;;7.53;4.10;;;;;;;21.48;63.37;101029.69;5106229;28;20102;-80
2023/09/16 05:00:13;;;;;;;12.93;4.47;;;;;;;21.70;62.42;101021.19;5116009;28;20066;-81
2023/09/16 05:03:05;;;;;;;5.10;2.88;;;;;;;22.07;61.85;101028.63;5115359;28;20047;-81
2023/09/16 05:05:59;;;;;;;8.35;4.07;;;;;;;22.15;61.21;101028.25;5117819;28;20046;-81
2023/09/16 05:08:53;;;;;;;11.68;3.67;;;;;;;22.05;61.05;101030.97;5120950;28;20422;-80
2023/09/16 05:11:47;;;;;;;6.10;3.40;;;;;;;22.23;60.71;101025.56;5119183;28;20044;-82
2023/09/16 05:14:42;;;;;;;5.05;2.75;;;;;;;22.46;59.57;101028.84;5117905;28;20051;-81
2023/09/16 05:17:36;;;;;;;8.13;3.38;;;;;;;22.59;58.66;101022.59;5120699;28;20048;-81
2023/09/16 05:20:31;;;;;;;8.20;4.70;;;;;;;22.33;58.62;101030.38;5114434;28;20047;-81
2023/09/16 05:23:23;;;;;;;8.50;4.35;;;;;;;21.72;60.82;101021.59;5119891;28;20051;-80
2023/09/16 05:26:15;;;;;;;7.88;4.78;;;;;;;21.24;61.98;101026.28;5115387;28;20035;-81
2023/09/16 05:29:07;;;;;;;9.85;5.30;;;;;;;21.17;62.97;101023.47;5115230;28;20042;-81
2023/09/16 05:32:03;;;;;;;7.70;5.22;;;;;;;21.18;62.31;101029.81;5116490;28;20043;-80
2023/09/16 05:34:58;;;;;;;7.25;5.18;;;;;;;21.22;63.31;101025.09;5110942;28;20043;-81
2023/09/16 05:37:53;;;;;;;6.90;3.83;;;;;;;21.70;62.09;101023.94;5111568;28;20050;-81
2023/09/16 05:40:47;;;;;;;6.93;3.92;;;;;;;21.85;61.52;101044.25;5112613;28;20047;-81
2023/09/16 05:43:42;;;;;;;4.35;3.20;;;;;;;22.18;60.30;101051.66;5118130;28;20050;-81
2023/09/16 05:46:34;;;;;;;8.10;4.07;;;;;;;22.49;59.17;101053.81;5116133;28;20053;-81
2023/09/16 05:49:26;;;;;;;6.47;4.03;;;;;;;22.65;58.58;101047.97;5116721;28;20039;-80
2023/09/16 05:52:21;;;;;;;3.72;3.33;;;;;;;22.71;58.20;101043.63;5118318;28;20043;-81
2023/09/16 05:55:13;;;;;;;6.10;3.33;;;;;;;22.78;57.96;101051.22;5116202;28;20050;-81
2023/09/16 05:58:07;;;;;;;6.13;2.88;;;;;;;22.82;57.72;101052.81;5117695;28;20043;-81
2023/09/16 06:00:59;;;;;;;6.28;3.22;;;;;;;22.89;57.75;101063.94;5116268;28;20043;-80
2023/09/16 06:03:54;;;;;;;3.40;2.78;;;;;;;22.93;57.45;101059.19;5114163;28;20514;-80
2023/09/16 06:06:49;;;;;;;6.20;2.92;;;;;;;22.97;57.51;101061.97;5115111;28;20517;-80
2023/09/16 06:09:41;;;;;;;4.20;3.38;;;;;;;22.96;57.61;101063.94;5116001;28;20043;-80
2023/09/16 06:12:33;;;;;;;4.50;3.20;;;;;;;22.97;57.58;101071.09;5116751;27;20109;-80
2023/09/16 06:15:26;;;;;;;5.20;2.97;;;;;;;23.02;57.46;101076.25;5118813;28;20046;-80
2023/09/16 06:18:21;;;;;;;7.78;3.38;;;;;;;23.03;57.56;101079.84;5118934;28;20066;-81
2023/09/16 06:21:15;;;;;;;6.82;3.05;;;;;;;23.06;57.51;101079.03;5117392;28;20042;-80
2023/09/16 06:24:10;;;;;;;7.33;2.70;;;;;;;23.14;57.55;101086.22;5116543;28;20513;-81
2023/09/16 06:27:05;;;;;;;4.60;3.40;;;;;;;23.17;57.65;101087.41;5116321;28;20284;-81
2023/09/16 06:29:57;;;;;;;9.82;3.70;;;;;;;23.22;57.67;101081.47;5118039;28;20042;-81
2023/09/16 06:32:52;;;;;;;7.07;3.00;;;;;;;23.29;57.57;101093.41;5108621;28;20051;-79
2023/09/16 06:35:44;;;;;;;7.07;3.00;;;;;;;23.33;57.71;101087.84;5117225;28;21694;-81
2023/09/16 06:38:39;;;;;;;6.93;3.50;;;;;;;23.46;57.36;101091.09;5109921;28;20051;-81
2023/09/16 06:41:31;;;;;;;18.70;3.88;;;;;;;23.59;57.21;101084.75;5114270;28;20043;-81
2023/09/16 06:44:35;;;;;;;4.50;3.60;;;;;;;23.66;56.98;101083.97;5125173;28;20066;-81
2023/09/16 06:47:33;;;;;;;21.10;4.88;;;;;;;23.65;56.71;101088.75;5123353;28;20055;-80
2023/09/16 06:50:27;;;;;;;12.02;6.45;;;;;;;23.65;56.58;101085.97;5127545;28;20042;-81
2023/09/16 06:53:19;;;;;;;7.47;5.55;;;;;;;23.72;55.90;101091.50;5117941;28;20039;-80
2023/09/16 06:56:14;;;;;;;15.70;4.75;;;;;;;23.76;56.86;101083.19;5125850;28;20524;-81
2023/09/16 06:59:09;;;;;;;13.25;4.60;;;;;;;23.82;56.46;101089.94;5121889;28;20051;-80
2023/09/16 07:02:03;;;;;;;8.55;4.05;;;;;;;23.65;57.79;101085.16;5120117;27;20039;-81
2023/09/16 07:04:56;;;;;;;17.67;5.38;;;;;;;23.55;57.33;101078.41;5119484;28;20038;-82
2023/09/16 07:07:50;;;;;;;10.93;5.00;;;;;;;23.58;57.60;101074.84;5122713;28;20046;-80
2023/09/16 07:10:42;;;;;;;10.65;5.00;;;;;;;23.55;57.65;101083.97;5119458;28;20410;-82
2023/09/16 07:13:34;;;;;;;7.50;4.57;;;;;;;23.49;57.68;101082.75;5118090;28;20051;-82
2023/09/16 07:16:39;;;;;;;17.77;4.93;;;;;;;23.51;57.61;101088.72;5111416;28;20042;-81
2023/09/16 07:19:33;;;;;;;9.90;5.00;;;;;;;23.51;57.58;101085.16;5110735;28;20494;-82
2023/09/16 07:22:25;;;;;;;8.95;4.93;;;;;;;23.46;57.56;101080.00;5107819;28;20043;-82
2023/09/16 07:25:20;;;;;;;8.50;4.32;;;;;;;23.52;57.40;101072.88;5115676;28;20121;-82
2023/09/16 07:28:14;;;;;;;10.52;4.32;;;;;;;23.56;57.72;101082.78;5113809;28;20058;-82
2023/09/16 07:31:09;;;;;;;8.13;5.13;;;;;;;23.52;57.95;101083.97;5112524;28;20430;-82
2023/09/16 07:34:04;;;;;;;10.05;5.85;;;;;;;23.60;57.09;101086.34;5119608;28;20039;-81
2023/09/16 07:36:58;;;;;;;9.70;5.22;;;;;;;23.49;57.60;101093.06;5115887;28;20036;-82
2023/09/16 07:39:50;;;;;;;7.05;5.07;;;;;;;23.49;58.01;101090.28;5113492;28;20039;-80
2023/09/16 07:42:45;;;;;;;8.27;3.92;;;;;;;23.52;57.50;101083.97;5118036;28;20082;-81
2023/09/16 07:45:37;;;;;;;7.90;3.88;;;;;;;23.47;57.86;101093.47;5123879;28;20058;-82
2023/09/16 07:48:31;;;;;;;11.82;4.78;;;;;;;23.33;57.61;101093.41;5122266;28;20063;-82
2023/09/16 07:51:21;;;;;;;5.40;4.13;;;;;;;23.22;57.87;101090.59;5118689;28;20040;-82
2023/09/16 07:54:15;;;;;;;6.97;3.63;;;;;;;23.42;57.60;101085.47;5123087;28;20047;-82
2023/09/16 07:57:10;;;;;;;11.40;4.10;;;;;;;23.36;57.08;101089.84;5120819;28;20615;-82
2023/09/16 08:00:07;;;;;;;7.03;3.90;;;;;;;23.39;56.81;101083.50;5118023;28;20536;-82
2023/09/16 08:03:01;;;;;;;11.27;4.55;;;;;;;23.46;57.49;101091.88;5118087;28;20050;-82
2023/09/16 08:05:53;;;;;;;5.85;4.22;;;;;;;23.49;57.38;101091.09;5119555;28;20055;-82
2023/09/16 08:08:45;;;;;;;7.70;3.63;;;;;;;23.50;57.42;101089.09;5123031;28;20043;-82
2023/09/16 08:11:40;;;;;;;12.02;4.85;;;;;;;23.51;58.51;101094.28;5122474;28;20046;-82
2023/09/16 08:14:34;;;;;;;5.63;4.68;;;;;;;23.49;59.03;101093.88;5122491;28;20028;-82
2023/09/16 08:17:29;;;;;;;12.45;5.00;;;;;;;23.65;58.54;101097.06;5126809;28;20054;-82
2023/09/16 08:20:24;;;;;;;8.93;5.13;;;;;;;23.75;58.46;101098.28;5122090;28;20519;-82
2023/09/16 08:26:19;;;;;;;11.63;5.03;;;;;;;23.77;57.69;101090.34;5132916;23;20078;-77
2023/09/16 08:29:14;;;;;;;9.40;5.32;;;;;;;23.81;56.98;101099.47;4970912;28;20043;-79
2023/09/16 08:32:09;;;;;;;5.93;4.43;;;;;;;23.81;57.37;101097.50;4980001;28;20038;-78
2023/09/16 08:35:01;;;;;;;4.68;3.42;;;;;;;23.80;57.58;101095.09;4970652;28;20050;-78
2023/09/16 08:38:00;;;;;;;8.23;4.30;;;;;;;23.82;58.08;101103.84;4950451;29;20050;-78
2023/09/16 08:41:02;;;;;;;5.60;3.78;;;;;;;23.81;57.50;101100.28;4950150;29;20042;-79
2023/09/16 08:43:55;;;;;;;5.65;3.97;;;;;;;23.74;57.87;101094.69;4955965;29;20055;-79
2023/09/16 08:46:53;;;;;;;6.90;4.00;;;;;;;23.76;57.82;101095.09;4944905;29;20055;-79
2023/09/16 08:50:02;;;;;;;7.57;4.22;;;;;;;23.78;56.80;101097.47;4944311;29;20057;-78
2023/09/16 08:53:00;;;;;;;8.75;4.20;;;;;;;23.79;58.19;101101.84;4951662;29;20053;-78
2023/09/16 08:55:55;;;;;;;8.80;3.72;;;;;;;23.78;58.23;101094.69;4947791;29;20043;-80
2023/09/16 08:58:49;;;;;;;9.50;4.63;;;;;;;23.86;57.18;101102.66;4950346;29;20071;-78
2023/09/16 09:01:43;;;;;;;7.50;4.30;;;;;;;23.95;57.33;101101.44;4941334;29;20054;-77
2023/09/16 09:04:37;;;;;;;7.28;4.43;;;;;;;23.97;58.03;101110.19;4940549;29;20051;-77
2023/09/16 09:07:32;;;;;;;10.05;5.72;;;;;;;24.77;55.92;101116.84;4939655;29;20047;-77
2023/09/16 09:10:26;;;;;;;7.53;5.32;;;;;;;24.32;57.26;101104.66;4941057;29;20040;-82
2023/09/16 09:13:21;;;;;;;26.45;9.07;;;;;;;24.25;57.76;101115.75;4949317;29;20050;-78
2023/09/16 09:16:20;;;;;;;12.57;6.03;;;;;;;24.22;58.35;101108.22;4946430;29;20047;-76
2023/09/16 09:19:13;;;;;;;7.85;5.68;;;;;;;24.14;59.39;101109.38;4946909;29;20054;-76
2023/09/16 09:22:11;;;;;;;8.82;6.53;;;;;;;23.95;60.10;101110.59;4955213;29;20042;-78
2023/09/16 09:25:05;;;;;;;8.15;5.28;;;;;;;24.06;61.06;101110.59;4945619;29;20054;-76
2023/09/16 09:28:00;;;;;;;6.95;4.82;;;;;;;24.05;61.07;101117.31;4944908;28;20047;-76
2023/09/16 09:30:54;;;;;;;11.38;4.72;;;;;;;24.03;60.55;101109.38;4937995;29;20054;-76
2023/09/16 09:33:48;;;;;;;;;;;;;;;24.12;61.23;101111.78;4951166;29;20512;-77
2023/09/16 09:36:40;;;;;;;8.48;4.97;;;;;;;24.09;60.27;101112.56;4936039;29;20399;-77
2023/09/16 09:39:35;;;;;;;10.23;6.05;;;;;;;24.00;60.96;101117.72;4937044;29;20058;-77
2023/09/16 09:42:30;;;;;;;9.52;5.93;;;;;;;24.04;60.68;101121.28;4950463;29;20059;-77
2023/09/16 09:45:24;;;;;;;15.45;7.00;;;;;;;24.06;61.31;101118.91;4944070;29;20070;-77
2023/09/16 09:48:18;;;;;;;8.68;6.60;;;;;;;24.13;61.44;101125.25;4947957;29;20050;-76
2023/09/16 09:51:18;;;;;;;10.05;6.40;;;;;;;24.15;61.49;101122.88;4954744;29;20047;-79
2023/09/16 09:54:10;;;;;;;9.07;6.68;;;;;;;24.99;58.54;101126.72;4952388;29;20054;-79
2023/09/16 09:57:08;;;;;;;10.20;6.32;;;;;;;25.07;57.94;101122.75;4952441;28;20059;-76
2023/09/16 10:00:02;;;;;;;10.52;6.60;;;;;;;24.56;60.52;101119.69;4940923;29;20062;-79
2023/09/16 10:03:03;;;;;;;15.07;6.10;;;;;;;25.41;58.17;101122.97;4931557;29;20500;-79
2023/09/16 10:05:59;;;;;;;8.70;5.47;;;;;;;25.80;57.26;101117.16;4932953;28;20047;-78
2023/09/16 10:08:54;;;;;;;11.50;6.90;;;;;;;25.95;56.53;101113.09;4935676;29;20130;-79
2023/09/16 10:11:46;;;;;;;26.35;7.00;;;;;;;25.85;56.83;101124.31;4938964;29;20067;-78
2023/09/16 10:14:41;;;;;;;7.60;4.57;;;;;;;25.60;56.84;101110.53;4939044;29;20062;-78
2023/09/16 10:17:35;;;;;;;11.45;5.78;;;;;;;25.88;57.76;101117.91;4952763;29;20054;-79
2023/09/16 10:20:28;;;;;;;13.68;5.45;;;;;;;26.37;54.85;101125.06;4941066;29;20421;-80
2023/09/16 10:23:23;;;;;;;10.02;5.07;;;;;;;26.31;54.93;101124.72;4926028;29;20047;-77
2023/09/16 10:26:17;;;;;;;9.15;5.07;;;;;;;26.08;54.65;101116.16;4937346;29;20052;-78
2023/09/16 10:29:10;;;;;;;6.40;4.63;;;;;;;26.59;53.70;101117.28;4940795;29;20050;-78
2023/09/16 10:32:05;;;;;;;6.55;5.47;;;;;;;26.69;54.15;101103.22;4938327;29;20412;-77
2023/09/16 10:34:59;;;;;;;10.18;5.65;;;;;;;26.76;53.49;101105.16;4943497;29;20051;-78
2023/09/16 10:37:54;;;;;;;11.27;5.65;;;;;;;26.38;54.22;101102.34;4931929;29;20047;-78
2023/09/16 10:40:50;;;;;;;9.82;5.93;;;;;;;26.17;55.05;101098.94;4927294;29;20508;-77
2023/09/16 10:43:44;;;;;;;12.38;5.95;;;;;;;26.23;55.17;101092.53;4935091;29;20047;-78
2023/09/16 10:46:40;;;;;;;9.85;5.70;;;;;;;27.38;52.76;101092.81;4921345;29;20048;-78
2023/09/16 10:49:34;;;;;;;16.00;6.35;;;;;;;29.90;45.17;101089.56;4932981;29;20050;-78
2023/09/16 10:52:41;;;;;;;17.80;5.22;;;;;;;30.61;42.48;101090.50;4931091;29;20046;-78
2023/09/16 10:56:16;;;;;;;6.30;4.82;;;;;;;30.90;40.33;101108.13;4934698;29;20047;-79
2023/09/16 10:59:17;;;;;;;5.03;3.67;;;;;;;37.79;27.87;101108.22;4940971;29;20062;-79
2023/09/16 11:02:20;;;;;;;11.02;3.85;;;;;;;42.67;22.47;101117.38;4941238;29;20063;-79
2023/09/16 11:05:15;;;;;;;7.10;3.30;;;;;;;46.47;18.17;101118.59;4923584;29;20051;-80
2023/09/16 11:08:09;;;;;;;6.20;4.43;;;;;;;45.89;18.12;101108.03;4922023;29;20067;-81
2023/09/16 11:11:05;;;;;;;9.52;4.55;;;;;;;44.46;19.85;101110.69;4929621;29;20055;-80
2023/09/16 11:13:59;;;;;;;5.32;3.70;;;;;;;42.11;21.94;101098.97;4927201;29;20051;-80
2023/09/16 11:16:57;;;;;;;8.07;4.20;;;;;;;41.06;22.67;101091.34;4929806;29;20055;-78
2023/09/16 11:19:49;;;;;;;5.05;3.78;;;;;;;41.97;22.29;101089.38;4931839;29;20401;-79
2023/09/16 11:22:47;;;;;;;7.65;3.53;;;;;;;41.52;22.32;101082.22;4939648;29;20063;-79
2023/09/16 11:25:43;;;;;;;7.38;3.50;;;;;;;45.12;18.72;101085.94;4934462;29;20552;-80
2023/09/16 11:28:37;;;;;;;5.97;3.45;;;;;;;42.74;21.19;101073.13;4941591;29;20059;-80
2023/09/16 11:31:31;;;;;;;8.38;4.35;;;;;;;40.76;22.59;101065.34;4941524;29;20073;-79
2023/09/16 11:34:24;;;;;;;10.38;3.50;;;;;;;42.71;21.41;101070.56;4939450;29;20050;-79
2023/09/16 11:37:23;;;;;;;9.57;5.13;;;;;;;44.24;19.71;101070.84;4943414;29;20039;-81
2023/09/16 11:40:13;;;;;;;8.43;3.10;;;;;;;47.17;16.75;101074.19;4941665;29;20054;-84
2023/09/16 11:43:05;;;;;;;18.83;6.55;;;;;;;45.19;18.58;101070.16;4938386;29;20050;-81
2023/09/16 11:45:59;;;;;;;7.40;4.28;;;;;;;39.92;24.13;101055.78;4939592;29;20043;-79
2023/09/16 11:49:05;;;;;;;14.65;7.45;;;;;;;38.21;26.30;101050.94;4943527;29;20050;-78
2023/09/16 11:51:59;;;;;;;4.68;3.40;;;;;;;40.46;24.05;101045.06;4946754;29;20047;-80
2023/09/16 11:54:51;;;;;;;11.80;3.33;;;;;;;45.87;18.33;101053.94;4943125;29;20042;-80
2023/09/16 11:57:46;;;;;;;4.03;2.90;;;;;;;40.66;22.36;101038.38;4941725;29;20113;-80
2023/09/16 12:00:42;;;;;;;7.03;2.83;;;;;;;41.64;21.30;101032.34;4945439;29;20047;-80
2023/09/16 12:03:36;;;;;;;4.53;2.25;;;;;;;39.52;22.79;101034.81;4928314;29;20055;-79
2023/09/16 12:06:31;;;;;;;4.88;2.50;;;;;;;34.82;29.83;101031.06;4922733;29;20071;-79
2023/09/16 12:09:27;;;;;;;6.63;3.03;;;;;;;33.76;32.00;101016.81;4925644;29;20052;-81
2023/09/16 12:12:17;;;;;;;4.32;2.90;;;;;;;38.18;26.28;101026.38;4923490;29;20051;-80
2023/09/16 12:15:09;;;;;;;6.53;2.53;;;;;;;34.05;31.86;101017.16;4927156;29;20059;-80
2023/09/16 12:18:01;;;;;;;4.72;3.25;;;;;;;32.86;33.60;101018.81;4924473;29;20523;-79
2023/09/16 12:20:51;;;;;;;14.40;3.50;;;;;;;37.29;26.71;101017.41;4928323;29;20059;-79
2023/09/16 12:23:47;;;;;;;7.40;3.50;;;;;;;38.31;25.85;101013.34;4937681;29;20412;-80
2023/09/16 12:26:40;;;;;;;8.43;3.63;;;;;;;37.97;26.17;101014.22;4935030;29;20528;-80
2023/09/16 12:29:37;;;;;;;5.78;3.65;;;;;;;34.24;31.75;101009.47;4941402;29;20050;-81
2023/09/16 12:32:29;;;;;;;6.35;3.45;;;;;;;31.70;37.02;100998.44;4933302;29;20094;-79
2023/09/16 12:35:24;;;;;;;6.57;4.25;;;;;;;30.27;39.86;100995.63;4946373;29;20106;-79
2023/09/16 12:38:19;;;;;;;9.85;2.97;;;;;;;30.00;40.86;100990.34;4949778;29;20404;-81
2023/09/16 12:41:12;;;;;;;7.68;3.38;;;;;;;29.40;41.72;100994.66;4947209;29;20055;-79
2023/09/16 12:44:02;;;;;;;20.92;4.65;;;;;;;29.20;43.14;100986.31;4936322;29;20059;-77
2023/09/16 12:46:57;;;;;;;6.07;4.35;;;;;;;29.04;43.35;100979.88;4933622;29;20057;-79
2023/09/16 12:49:51;;;;;;;14.02;3.85;;;;;;;28.83;43.22;100975.56;4945293;29;20050;-79
2023/09/16 12:52:46;;;;;;;5.93;3.67;;;;;;;28.66;43.79;100974.69;4947410;29;20051;-79
2023/09/16 12:55:38;;;;;;;4.72;3.13;;;;;;;28.70;43.94;100974.63;4932488;29;20110;-79
2023/09/16 12:58:31;;;;;;;9.20;4.65;;;;;;;28.39;45.78;100962.91;4946344;29;20062;-79
2023/09/16 13:01:28;;;;;;;6.10;3.50;;;;;;;28.45;44.99;100967.53;4947574;29;20404;-78
2023/09/16 13:04:21;;;;;;;12.73;5.30;;;;;;;28.36;45.69;100963.75;4944197;29;20055;-79
2023/09/16 13:07:16;;;;;;;3.88;2.90;;;;;;;28.16;45.72;100951.75;4948265;29;20539;-78
2023/09/16 13:10:08;;;;;;;364.55;74.30;;;;;;;28.13;45.99;100947.03;4941516;28;20050;-79
2023/09/16 13:13:01;;;;;;;185.35;39.72;;;;;;;28.08;45.64;100951.88;4940412;29;20035;-79
2023/09/16 13:15:57;;;;;;;73.13;18.42;;;;;;;27.99;46.93;100950.84;4940932;29;20400;-78
2023/09/16 13:18:52;;;;;;;127.38;26.90;;;;;;;28.02;46.98;100952.81;4934486;28;20047;-78
2023/09/16 13:21:46;;;;;;;155.85;35.80;;;;;;;27.79;46.89;100950.81;4929206;29;20048;-78
2023/09/16 13:24:45;;;;;;;;;;;;;;;27.85;46.85;100951.91;4927951;29;20380;-78
2023/09/16 13:27:39;;;;;;;29.15;8.95;;;;;;;27.85;48.40;100954.72;4925977;29;19918;-79
2023/09/16 13:30:32;;;;;;;26.33;10.20;;;;;;;27.79;47.47;100950.81;4936111;29;20043;-79